If you wish to contribute or participate in the discussions about articles you are invited to join SKYbrary as a registered user

 Actions

Moody Air Force Base

From SKYbrary Wiki

KVAD
Airport
ICAO: KVAD
Summary
Name Moody Air Force Base
Region North America
Territory United States US.gif
Location Valdosta, Georgia
Serving
Coordinates 30° 58' 7.00" N, 83° 11' 34.99" W
Runways
Designator Length Width Surface ROPS
18L/36R 2835 m9,301.181 ft
46 m150.919 ft
CON yes/yes
18R/36L 2438 m7,998.688 ft
46 m150.919 ft
PEM yes/yes


METAR
Observation KVAD 152156Z AUTO 04010KT 10SM CLR 33/23 A2997 RMK AO2 SLP149 T03280228 $
Station Moody Air Force Base
Date/Time 15 September 2019 21:56:00
Wind direction 40°
Wind speed 10 kts
Lowest cloud amount n/a
Temperature 32.8°C
Dew point 22.8°C
Humidity 55%
QNH hPa
Weather condition n/a

WX
Tag(s) Cumulonimbus
Tropical Revolving Storm

Moody Air Force Base

ICAO: KVAD IATA: VAD

Description

Moody Air Force Base is a United States Air Force installation located in Lowndes County and Lanier County, about 14 km7.559 nm
14,000 m
45,931.759 ft
northeast of Valdosta, Georgia.

Climatology

Humid “subtropical” climate (Köppen climate classification Cfa) - characterized by hot, humid summers and cool winters. Significant amounts of precipitation occur in all seasons in most areas.

Maps

Terrain

Loading map...

Airport Layout

Loading map...


Accidents & Serious Incidents at or in vicinity of KVAD

None on SKYbrary